Camden Point, Missouri
Current Conditions -  °F | °C
As of 4:53 PM on Wednesday 26 Nov 2014 (Local Time) from KMCI Reporting Station
Overcast Overcast  
Wind Chill: 20°   Ceiling: 1900
Heat Index: 32°   Visibility: 10mi
Dew Point: 25°   Wind: 21mph
Humidity: 75%   Direction: 330°NNW
Pressure: 30.17"   Gusts: 28mph
Location:  39.45°N, 94.74°W
Report Text: KMCI 262253Z 33018G24KT 10SM OVC019 00/M04 A3017 RMK AO2 PK WND 31028/2235 SLP224 T00001039
Loading
Personal Weather Stations






























Interactive Weather Map New forecast layout! Learn more

10-Day Weather Forecast

Advertisements
Track Severe Weather on mobile